createdAt,value
2023-04-15T00:01:01.499Z,0
2023-04-15T00:02:09.660Z,0
2023-04-15T00:03:17.850Z,0
2023-04-15T00:04:26.058Z,0
2023-04-15T00:05:35.225Z,0
2023-04-15T00:06:44.403Z,0
2023-04-15T00:07:53.569Z,0
2023-04-15T00:09:02.736Z,0
2023-04-15T00:10:11.918Z,0
2023-04-15T00:11:21.148Z,0
2023-04-15T00:12:30.259Z,0
2023-04-15T00:13:39.430Z,0
2023-04-15T00:14:48.591Z,0
2023-04-15T00:15:57.777Z,0
2023-04-15T00:17:06.957Z,0
2023-04-15T00:18:16.192Z,0
2023-04-15T00:19:24.307Z,0
2023-04-15T00:20:33.475Z,0
2023-04-15T00:21:42.661Z,0
2023-04-15T00:22:51.853Z,0
2023-04-15T00:25:10.174Z,0
2023-04-15T00:26:19.340Z,0
2023-04-15T00:27:28.513Z,0
2023-04-15T00:28:36.705Z,0
2023-04-15T00:29:44.942Z,0
2023-04-15T00:30:54.072Z,0
2023-04-15T00:32:03.248Z,0
2023-04-15T00:33:12.427Z,0
2023-04-15T00:34:21.605Z,0
2023-04-15T00:35:30.775Z,0
2023-04-15T00:36:40.005Z,0
2023-04-15T00:37:49.181Z,0
2023-04-15T00:38:58.287Z,0
2023-04-15T00:40:07.452Z,0
2023-04-15T00:41:16.637Z,0
2023-04-15T00:42:25.851Z,0
2023-04-15T00:43:35.014Z,0
2023-04-15T00:44:43.183Z,0
2023-04-15T00:45:52.344Z,0
2023-04-15T00:47:01.504Z,0
2023-04-15T00:48:10.687Z,0
2023-04-15T00:49:19.861Z,0
2023-04-15T00:50:29.025Z,0
2023-04-15T00:51:38.210Z,0
2023-04-15T00:52:46.409Z,0
2023-04-15T00:53:54.586Z,0
2023-04-15T00:55:02.815Z,0
2023-04-15T00:56:10.978Z,0
2023-04-15T00:57:20.137Z,0
2023-04-15T00:58:29.314Z,0
2023-04-15T00:59:37.505Z,0
2023-04-15T01:00:45.696Z,0
2023-04-15T01:01:54.863Z,0
2023-04-15T01:03:04.042Z,0
2023-04-15T01:04:13.219Z,0
2023-04-15T01:05:22.385Z,0
2023-04-15T01:06:31.552Z,0
2023-04-15T01:07:40.778Z,0
2023-04-15T01:08:49.921Z,0
2023-04-15T01:09:59.088Z,0
2023-04-15T01:11:08.281Z,0
2023-04-15T01:12:17.458Z,0
2023-04-15T01:13:26.591Z,0
2023-04-15T01:14:35.771Z,0
2023-04-15T01:15:43.955Z,0
2023-04-15T01:16:53.124Z,0
2023-04-15T01:18:02.295Z,0
2023-04-15T01:19:11.476Z,0
2023-04-15T01:20:20.659Z,0
2023-04-15T01:21:29.873Z,0
2023-04-15T01:22:39.064Z,0
2023-04-15T01:23:48.239Z,0
2023-04-15T01:24:57.334Z,0
2023-04-15T01:26:06.529Z,0
2023-04-15T01:27:15.688Z,0
2023-04-15T01:28:24.846Z,0
2023-04-15T01:29:34.028Z,0
2023-04-15T01:30:42.225Z,0
2023-04-15T01:31:51.423Z,0
2023-04-15T01:33:00.561Z,0
2023-04-15T01:34:09.734Z,0
2023-04-15T01:35:18.902Z,0
2023-04-15T01:36:28.087Z,0
2023-04-15T01:37:37.258Z,0
2023-04-15T01:38:46.422Z,0
2023-04-15T01:39:55.662Z,0
2023-04-15T01:41:04.807Z,0
2023-04-15T01:42:13.944Z,0
2023-04-15T01:43:23.138Z,0
2023-04-15T01:44:32.305Z,0
2023-04-15T01:45:40.498Z,0
2023-04-15T01:46:49.658Z,0
2023-04-15T01:47:58.830Z,0
2023-04-15T01:49:07.997Z,0
2023-04-15T01:50:17.220Z,0
2023-04-15T01:51:26.347Z,0
2023-04-15T01:52:35.532Z,0
2023-04-15T01:53:44.697Z,0
2023-04-15T01:54:53.882Z,0
2023-04-15T01:56:03.042Z,0
2023-04-15T01:57:12.224Z,0
2023-04-15T01:58:21.440Z,0
2023-04-15T01:59:30.598Z,0
2023-04-15T02:00:38.745Z,0
2023-04-15T02:01:47.929Z,0
2023-04-15T02:02:57.102Z,0
2023-04-15T02:04:06.264Z,0
2023-04-15T02:05:15.434Z,0
2023-04-15T02:06:24.626Z,0
2023-04-15T02:07:33.782Z,0
2023-04-15T02:08:42.962Z,0
2023-04-15T02:09:52.150Z,0
2023-04-15T02:11:01.321Z,0
2023-04-15T02:12:10.492Z,0
2023-04-15T02:13:19.674Z,0
2023-04-15T02:14:28.940Z,0
2023-04-15T02:15:37.005Z,0
2023-04-15T02:16:45.203Z,0
2023-04-15T02:19:02.565Z,0
2023-04-15T02:20:11.736Z,0
2023-04-15T02:21:19.962Z,0
2023-04-15T02:22:28.124Z,0
2023-04-15T02:23:37.304Z,0
2023-04-15T02:24:46.468Z,0
2023-04-15T02:25:55.648Z,0
2023-04-15T02:27:04.809Z,0
2023-04-15T02:28:13.988Z,0
2023-04-15T02:29:23.157Z,0
2023-04-15T02:30:32.340Z,0
2023-04-15T02:31:41.502Z,0
2023-04-15T02:32:50.675Z,0
2023-04-15T02:33:59.850Z,0
2023-04-15T02:35:09.024Z,0
2023-04-15T02:36:18.200Z,0
2023-04-15T02:37:26.387Z,0
2023-04-15T02:38:35.573Z,0
2023-04-15T02:39:44.728Z,0
2023-04-15T02:40:53.900Z,0
2023-04-15T02:42:03.080Z,0
2023-04-15T02:43:12.289Z,0
2023-04-15T02:45:30.597Z,0
2023-04-15T02:46:38.818Z,0
2023-04-15T02:47:46.979Z,0
2023-04-15T02:48:55.185Z,0
2023-04-15T02:50:03.371Z,0
2023-04-15T02:51:12.547Z,0
2023-04-15T02:52:21.712Z,0
2023-04-15T02:54:40.054Z,0
2023-04-15T02:55:49.233Z,0
2023-04-15T02:56:58.399Z,0
2023-04-15T02:58:07.572Z,0
2023-04-15T02:59:16.817Z,0
2023-04-15T03:00:25.967Z,0
2023-04-15T03:01:35.138Z,0
2023-04-15T03:02:44.312Z,0
2023-04-15T03:03:52.572Z,0
2023-04-15T03:05:01.676Z,0
2023-04-15T03:06:10.899Z,0
2023-04-15T03:07:20.026Z,0
2023-04-15T03:08:29.210Z,0
2023-04-15T03:09:38.385Z,0
2023-04-15T03:10:47.558Z,0
2023-04-15T03:11:56.716Z,0
2023-04-15T03:13:05.887Z,0
2023-04-15T03:14:15.064Z,0
2023-04-15T03:15:24.294Z,0
2023-04-15T03:16:33.415Z,0
2023-04-15T03:17:42.580Z,0
2023-04-15T03:18:50.789Z,0
2023-04-15T03:19:59.157Z,0
2023-04-15T03:21:08.136Z,0
2023-04-15T03:22:17.304Z,0
2023-04-15T03:23:25.506Z,0
2023-04-15T03:24:33.704Z,0
2023-04-15T03:25:42.921Z,0
2023-04-15T03:26:52.077Z,0
2023-04-15T03:28:01.253Z,0
2023-04-15T03:29:10.401Z,0
2023-04-15T03:30:19.590Z,0
2023-04-15T03:31:28.737Z,0
2023-04-15T03:32:37.897Z,0
2023-04-15T03:33:47.065Z,0
2023-04-15T03:34:56.247Z,0
2023-04-15T03:36:05.420Z,0
2023-04-15T03:37:14.585Z,0
2023-04-15T03:38:23.773Z,0
2023-04-15T03:39:31.960Z,0
2023-04-15T03:40:41.139Z,0
2023-04-15T03:41:50.355Z,0
2023-04-15T03:42:59.472Z,0
2023-04-15T03:44:08.672Z,0
2023-04-15T03:45:17.822Z,0
2023-04-15T03:46:27.046Z,0
2023-04-15T03:47:36.169Z,0
2023-04-15T03:48:45.341Z,0
2023-04-15T03:49:54.506Z,0
2023-04-15T03:51:03.686Z,0
2023-04-15T03:52:12.856Z,0
2023-04-15T03:54:31.196Z,0
2023-04-15T03:55:40.381Z,0
2023-04-15T03:56:48.563Z,0
2023-04-15T03:57:57.745Z,3
2023-04-15T03:59:06.909Z,3
2023-04-15T04:00:15.114Z,3
2023-04-15T04:01:23.309Z,3
2023-04-15T04:02:32.467Z,3
2023-04-15T04:03:41.642Z,3
2023-04-15T04:04:50.820Z,3
2023-04-15T04:06:00.027Z,3
2023-04-15T04:07:09.160Z,4
2023-04-15T04:08:18.332Z,4
2023-04-15T04:09:27.507Z,4
2023-04-15T04:10:36.691Z,4
2023-04-15T04:11:45.861Z,9
2023-04-15T04:12:55.012Z,15
2023-04-15T04:14:04.236Z,9
2023-04-15T04:15:13.420Z,13
2023-04-15T04:16:21.556Z,10
2023-04-15T04:17:30.733Z,14
2023-04-15T04:18:39.897Z,14
2023-04-15T04:20:58.252Z,32
2023-04-15T04:22:07.412Z,45
2023-04-15T04:23:16.600Z,46
2023-04-15T04:24:25.770Z,47
2023-04-15T04:25:33.964Z,60
2023-04-15T04:26:42.152Z,65
2023-04-15T04:27:51.327Z,74
2023-04-15T04:29:00.500Z,83
2023-04-15T04:30:09.665Z,92
2023-04-15T04:31:18.013Z,114
2023-04-15T04:32:26.045Z,132
2023-04-15T04:33:35.221Z,141
2023-04-15T04:34:44.405Z,159
2023-04-15T04:35:53.567Z,169
2023-04-15T04:37:02.740Z,195
2023-04-15T04:38:11.916Z,205
2023-04-15T04:39:21.112Z,218
2023-04-15T04:40:30.255Z,256
2023-04-15T04:41:39.425Z,268
2023-04-15T04:42:48.605Z,278
2023-04-15T04:43:57.770Z,300
2023-04-15T04:45:06.945Z,327
2023-04-15T04:46:16.128Z,351
2023-04-15T04:47:24.302Z,374
2023-04-15T04:48:33.488Z,385
2023-04-15T04:49:42.661Z,399
2023-04-15T04:50:51.833Z,440
2023-04-15T04:52:01.122Z,468
2023-04-15T04:53:10.168Z,488
2023-04-15T04:54:19.355Z,512
2023-04-15T04:55:27.554Z,536
2023-04-15T04:56:35.730Z,564
2023-04-15T04:57:43.927Z,588
2023-04-15T04:58:52.173Z,625
2023-04-15T05:00:01.339Z,637
2023-04-15T05:01:10.453Z,687
2023-04-15T05:02:19.647Z,715
2023-04-15T05:03:28.794Z,740
2023-04-15T05:04:37.979Z,786
2023-04-15T05:05:47.152Z,819
2023-04-15T05:06:56.328Z,840
2023-04-15T05:09:14.680Z,910
2023-04-15T05:10:23.864Z,951
2023-04-15T05:11:33.032Z,981
2023-04-15T05:12:42.195Z,1013
2023-04-15T05:14:59.623Z,1075
2023-04-15T05:16:07.763Z,1104
2023-04-15T05:17:15.929Z,1117
2023-04-15T05:18:25.119Z,1150
2023-04-15T05:19:34.310Z,1175
2023-04-15T05:20:43.480Z,1201
2023-04-15T05:21:52.657Z,1236
2023-04-15T05:23:01.802Z,1270
2023-04-15T05:24:11.016Z,1300
2023-04-15T05:25:20.176Z,1331
2023-04-15T05:26:29.337Z,1371
2023-04-15T05:27:38.511Z,1401
2023-04-15T05:28:46.697Z,1428
2023-04-15T05:29:54.873Z,1467
2023-04-15T05:31:04.052Z,1494
2023-04-15T05:32:13.225Z,1525
2023-04-15T05:33:22.410Z,1576
2023-04-15T05:34:31.611Z,1569
2023-04-15T05:35:40.735Z,1645
2023-04-15T05:36:49.915Z,1682
2023-04-15T05:37:59.099Z,1735
2023-04-15T05:39:08.263Z,1790
2023-04-15T05:40:17.450Z,1860
2023-04-15T05:41:26.607Z,1930
2023-04-15T05:42:35.782Z,1995
2023-04-15T05:43:44.958Z,2065
2023-04-15T05:44:53.143Z,2116
2023-04-15T05:46:02.312Z,2167
2023-04-15T05:47:11.482Z,2226
2023-04-15T05:48:20.663Z,2265
2023-04-15T05:49:29.838Z,2304
2023-04-15T05:50:39.010Z,2349
2023-04-15T05:51:48.173Z,2396
2023-04-15T05:52:56.378Z,2448
2023-04-15T05:54:04.560Z,2493
2023-04-15T05:55:13.734Z,2564
2023-04-15T05:56:21.929Z,2600
2023-04-15T05:57:30.116Z,2610
2023-04-15T05:58:39.294Z,2637
2023-04-15T05:59:48.467Z,2641
2023-04-15T06:00:57.817Z,2663
2023-04-15T06:02:06.877Z,2678
2023-04-15T06:03:16.064Z,2718
2023-04-15T06:04:25.148Z,2713
2023-04-15T06:06:43.560Z,2788
2023-04-15T06:07:52.676Z,2822
2023-04-15T06:09:01.866Z,2848
2023-04-15T06:10:11.015Z,2873
2023-04-15T06:11:20.194Z,2887
2023-04-15T06:12:28.374Z,2944
2023-04-15T06:13:37.576Z,2983
2023-04-15T06:14:46.723Z,3019
2023-04-15T06:15:55.923Z,3051
2023-04-15T06:17:05.129Z,3082
2023-04-15T06:18:14.354Z,3132
2023-04-15T06:19:23.431Z,3181
2023-04-15T06:20:32.594Z,3230
2023-04-15T06:21:41.907Z,3265
2023-04-15T06:22:50.947Z,3334
2023-04-15T06:24:00.123Z,3365
2023-04-15T06:25:09.283Z,3409
2023-04-15T06:26:18.547Z,3458
2023-04-15T06:27:26.645Z,3528
2023-04-15T06:28:35.825Z,3572
2023-04-15T06:29:44.005Z,3626
2023-04-15T06:32:01.375Z,3729
2023-04-15T06:33:09.574Z,3795
2023-04-15T06:34:17.853Z,3849
2023-04-15T06:35:26.925Z,3906
2023-04-15T06:36:36.104Z,3971
2023-04-15T06:37:45.318Z,4039
2023-04-15T06:38:54.435Z,4080
2023-04-15T06:40:03.622Z,4087
2023-04-15T06:41:12.868Z,4113
2023-04-15T06:42:21.966Z,4135
2023-04-15T06:43:31.138Z,4159
2023-04-15T06:44:40.300Z,4141
2023-04-15T06:45:49.504Z,4120
2023-04-15T06:46:58.657Z,4101
2023-04-15T06:48:07.902Z,4068
2023-04-15T06:49:16.103Z,4047
2023-04-15T06:50:25.274Z,4046
2023-04-15T06:51:34.424Z,4052
2023-04-15T06:52:43.611Z,4061
2023-04-15T06:53:52.771Z,4054
2023-04-15T06:55:00.974Z,4095
2023-04-15T06:56:10.153Z,4138
2023-04-15T06:57:18.335Z,4204
2023-04-15T06:58:26.545Z,4254
2023-04-15T06:59:35.694Z,4343
2023-04-15T07:01:54.059Z,4537
2023-04-15T07:03:02.312Z,4627
2023-04-15T07:04:10.465Z,4724
2023-04-15T07:06:28.789Z,4948
2023-04-15T07:07:38.057Z,4873
2023-04-15T07:08:47.225Z,5052
2023-04-15T07:09:56.480Z,5170
2023-04-15T07:11:05.602Z,5316
2023-04-15T07:12:14.635Z,5461
2023-04-15T07:13:23.896Z,5616
2023-04-15T07:14:33.138Z,5771
2023-04-15T07:15:42.320Z,5947
2023-04-15T07:16:51.568Z,6139
2023-04-15T07:18:00.489Z,6303
2023-04-15T07:19:08.894Z,6565
2023-04-15T07:20:18.084Z,6787
2023-04-15T07:21:27.028Z,7043
2023-04-15T07:22:36.206Z,7190
2023-04-15T07:23:45.609Z,7355
2023-04-15T07:24:54.675Z,7577
2023-04-15T07:26:03.914Z,7616
2023-04-15T07:27:12.997Z,7884
2023-04-15T07:28:22.185Z,8038
2023-04-15T07:29:31.237Z,8185
2023-04-15T07:30:40.530Z,8281
2023-04-15T07:31:49.582Z,7518
2023-04-15T07:32:58.820Z,8197
2023-04-15T07:34:06.966Z,8456
2023-04-15T07:35:15.147Z,7840
2023-04-15T07:36:24.303Z,8219
2023-04-15T07:37:32.600Z,8233
2023-04-15T07:38:40.802Z,8001
2023-04-15T07:39:50.063Z,8242
2023-04-15T07:40:59.045Z,8450
2023-04-15T07:42:08.215Z,8480
2023-04-15T07:43:17.509Z,8936
2023-04-15T07:44:26.688Z,8415
2023-04-15T07:45:35.890Z,7179
2023-04-15T07:46:44.976Z,7846
2023-04-15T07:47:54.120Z,7287
2023-04-15T07:49:03.426Z,8076
2023-04-15T07:50:12.530Z,9609
2023-04-15T07:51:21.651Z,8523
2023-04-15T07:52:30.767Z,7587
2023-04-15T07:53:38.952Z,8101
2023-04-15T07:54:48.130Z,9164
2023-04-15T07:55:57.296Z,9349
2023-04-15T07:57:06.477Z,7576
2023-04-15T07:58:15.636Z,8163
2023-04-15T07:59:24.862Z,8083
2023-04-15T08:00:34.074Z,8469
2023-04-15T08:01:42.329Z,9871
2023-04-15T08:02:50.387Z,8671
2023-04-15T08:03:58.610Z,7976
2023-04-15T08:05:08.007Z,8410
2023-04-15T08:06:16.001Z,7155
2023-04-15T08:07:25.173Z,7535
2023-04-15T08:08:34.278Z,8922
2023-04-15T08:09:43.560Z,6959
2023-04-15T08:10:52.615Z,6824
2023-04-15T08:12:01.792Z,6225
2023-04-15T08:13:10.960Z,5752
2023-04-15T08:14:20.136Z,5209
2023-04-15T08:15:29.380Z,4747
2023-04-15T08:16:38.499Z,3624
2023-04-15T08:17:47.645Z,5670
2023-04-15T08:18:56.895Z,4673
2023-04-15T08:20:06.139Z,5304
2023-04-15T08:21:14.364Z,4975
2023-04-15T08:22:23.451Z,5397
2023-04-15T08:23:32.525Z,4900
2023-04-15T08:24:41.804Z,4085
2023-04-15T08:25:50.878Z,4831
2023-04-15T08:27:00.046Z,4694
2023-04-15T08:28:08.266Z,4094
2023-04-15T08:29:16.577Z,3412
2023-04-15T08:30:25.664Z,4045
2023-04-15T08:31:33.792Z,4164
2023-04-15T08:32:42.155Z,4513
2023-04-15T08:33:51.276Z,3613
2023-04-15T08:35:00.417Z,4108
2023-04-15T08:36:09.517Z,4417
2023-04-15T08:37:18.712Z,3361
2023-04-15T08:38:27.878Z,3772
2023-04-15T08:39:37.106Z,5245
2023-04-15T08:40:46.243Z,5113
2023-04-15T08:41:55.531Z,5428
2023-04-15T08:43:04.618Z,4324
2023-04-15T08:44:13.937Z,6759
2023-04-15T08:45:22.900Z,4950
2023-04-15T08:46:32.136Z,4211
2023-04-15T08:47:41.391Z,4589
2023-04-15T08:48:49.526Z,5903
2023-04-15T08:49:58.679Z,5139
2023-04-15T08:51:07.842Z,5754
2023-04-15T08:52:17.030Z,4919
2023-04-15T08:53:26.243Z,4362
2023-04-15T08:54:35.417Z,5662
2023-04-15T08:55:44.460Z,6303
2023-04-15T08:56:53.664Z,6055
2023-04-15T08:58:01.980Z,6243
2023-04-15T08:59:10.172Z,7058
2023-04-15T09:00:18.280Z,6538
2023-04-15T09:01:27.413Z,8403
2023-04-15T09:02:35.648Z,7375
2023-04-15T09:03:44.773Z,7019
2023-04-15T09:04:54.027Z,7091
2023-04-15T09:06:03.142Z,6477
2023-04-15T09:07:12.244Z,6857
2023-04-15T09:08:21.567Z,9497
2023-04-15T09:09:30.692Z,7324
2023-04-15T09:10:39.814Z,7620
2023-04-15T09:11:49.028Z,6199
2023-04-15T09:12:58.108Z,6528
2023-04-15T09:14:07.420Z,6721
2023-04-15T09:15:16.571Z,6337
2023-04-15T09:16:25.646Z,4348
2023-04-15T09:17:33.875Z,4931
2023-04-15T09:18:43.045Z,5106
2023-04-15T09:19:52.218Z,4728
2023-04-15T09:21:01.446Z,4113
2023-04-15T09:22:10.576Z,4263
2023-04-15T09:23:19.742Z,3994
2023-04-15T09:24:28.915Z,3955
2023-04-15T09:25:38.147Z,4294
2023-04-15T09:26:47.237Z,4553
2023-04-15T09:27:56.469Z,4411
2023-04-15T09:29:05.636Z,4181
2023-04-15T09:30:14.721Z,4330
2023-04-15T09:31:23.891Z,3800
2023-04-15T09:32:32.108Z,3150
2023-04-15T09:33:41.249Z,3816
2023-04-15T09:34:50.458Z,3903
2023-04-15T09:35:59.628Z,3997
2023-04-15T09:37:08.795Z,4354
2023-04-15T09:38:17.954Z,4653
2023-04-15T09:39:27.206Z,5247
2023-04-15T09:40:36.502Z,5393
2023-04-15T09:41:45.571Z,6000
2023-04-15T09:42:54.792Z,5561
2023-04-15T09:44:04.029Z,6025
2023-04-15T09:45:13.008Z,5492
2023-04-15T09:46:22.248Z,6743
2023-04-15T09:48:39.579Z,5779
2023-04-15T09:49:48.722Z,4958
2023-04-15T09:50:57.928Z,4596
2023-04-15T09:52:07.027Z,4430
2023-04-15T09:53:16.189Z,5204
2023-04-15T09:54:25.548Z,3790
2023-04-15T09:55:34.713Z,4345
2023-04-15T09:56:43.850Z,4445
2023-04-15T09:57:52.893Z,5162
2023-04-15T09:59:02.112Z,5440
2023-04-15T10:00:11.330Z,4856
2023-04-15T10:01:20.481Z,5723
2023-04-15T10:02:28.668Z,6175
2023-04-15T10:03:36.884Z,5835
2023-04-15T10:04:44.968Z,5201
2023-04-15T10:05:54.156Z,5158
2023-04-15T10:07:03.406Z,4894
2023-04-15T10:08:12.490Z,4909
2023-04-15T10:09:21.692Z,4970
2023-04-15T10:10:29.935Z,5434
2023-04-15T10:11:38.157Z,5450
2023-04-15T10:12:47.360Z,5393
2023-04-15T10:13:56.530Z,5045
2023-04-15T10:15:05.646Z,5371
2023-04-15T10:16:14.822Z,5229
2023-04-15T10:17:23.961Z,5326
2023-04-15T10:18:33.091Z,6031
2023-04-15T10:19:42.268Z,6797
2023-04-15T10:20:51.457Z,6637
2023-04-15T10:22:00.633Z,6463
2023-04-15T10:23:09.834Z,6641
2023-04-15T10:24:19.101Z,5783
2023-04-15T10:25:28.285Z,6992
2023-04-15T10:26:36.415Z,6322
2023-04-15T10:27:45.540Z,5989
2023-04-15T10:28:54.662Z,5984
2023-04-15T10:30:03.877Z,6206
2023-04-15T10:31:13.019Z,5067
2023-04-15T10:32:22.283Z,6076
2023-04-15T10:33:31.357Z,6083
2023-04-15T10:34:39.681Z,6050
2023-04-15T10:35:47.746Z,5913
2023-04-15T10:36:56.907Z,5274
2023-04-15T10:38:06.067Z,5320
2023-04-15T10:39:14.284Z,6229
2023-04-15T10:40:22.452Z,6011
2023-04-15T10:41:31.657Z,6329
2023-04-15T10:42:40.871Z,5342
2023-04-15T10:43:50.061Z,5590
2023-04-15T10:44:59.142Z,6703
2023-04-15T10:46:07.359Z,5587
2023-04-15T10:47:16.567Z,5642
2023-04-15T10:48:25.686Z,5838
2023-04-15T10:49:34.857Z,6946
2023-04-15T10:50:44.023Z,6696
2023-04-15T10:51:53.238Z,7058
2023-04-15T10:53:02.377Z,7926
2023-04-15T10:54:11.619Z,8799
2023-04-15T10:55:20.718Z,7515
2023-04-15T10:56:30.027Z,8541
2023-04-15T10:57:39.161Z,8310
2023-04-15T10:58:48.288Z,8618
2023-04-15T11:01:06.702Z,7272
2023-04-15T11:02:14.821Z,6413
2023-04-15T11:03:23.934Z,7363
2023-04-15T11:04:33.303Z,7880
2023-04-15T11:05:42.296Z,9665
2023-04-15T11:06:51.493Z,7759
2023-04-15T11:08:00.802Z,7455
2023-04-15T11:10:19.064Z,8913
2023-04-15T11:11:28.247Z,8246
2023-04-15T11:12:37.341Z,7700
2023-04-15T11:13:46.601Z,7006
2023-04-15T11:14:55.666Z,6697
2023-04-15T11:16:04.937Z,5999
2023-04-15T11:17:13.080Z,6842
2023-04-15T11:18:21.226Z,7239
2023-04-15T11:19:30.493Z,6694
2023-04-15T11:20:39.583Z,7500
2023-04-15T11:21:48.733Z,6761
2023-04-15T11:22:57.929Z,7427
2023-04-15T11:24:07.136Z,5636
2023-04-15T11:25:16.255Z,5604
2023-04-15T11:26:25.507Z,6638
2023-04-15T11:27:34.805Z,5955
2023-04-15T11:28:43.994Z,5875
2023-04-15T11:29:52.947Z,6685
2023-04-15T11:31:02.246Z,6412
2023-04-15T11:32:11.424Z,5929
2023-04-15T11:33:20.589Z,4307
2023-04-15T11:34:28.650Z,5349
2023-04-15T11:35:37.831Z,4916
2023-04-15T11:36:46.993Z,5125
2023-04-15T11:37:56.181Z,3932
2023-04-15T11:39:05.330Z,3711
2023-04-15T11:40:14.523Z,2846
2023-04-15T11:41:22.709Z,3826
2023-04-15T11:42:30.901Z,4124
2023-04-15T11:43:39.091Z,3718
2023-04-15T11:44:47.286Z,3617
2023-04-15T11:45:55.470Z,4261
2023-04-15T11:47:03.673Z,4624
2023-04-15T11:48:12.837Z,4230
2023-04-15T11:49:22.014Z,5529
2023-04-15T11:51:40.352Z,4969
2023-04-15T11:52:49.564Z,4018
2023-04-15T11:53:58.693Z,5381
2023-04-15T11:56:17.047Z,4898
2023-04-15T11:57:26.222Z,4454
2023-04-15T11:58:35.378Z,4815
2023-04-15T11:59:44.554Z,4116
2023-04-15T12:00:52.759Z,4617
2023-04-15T12:03:10.115Z,4029
2023-04-15T12:04:19.290Z,4191
2023-04-15T12:05:28.467Z,5192
2023-04-15T12:06:37.638Z,5625
2023-04-15T12:07:46.811Z,5626
2023-04-15T12:08:55.970Z,6019
2023-04-15T12:10:05.152Z,6003
2023-04-15T12:11:14.319Z,6165
2023-04-15T12:12:23.516Z,6188
2023-04-15T12:13:32.660Z,7248
2023-04-15T12:14:40.862Z,5105
2023-04-15T12:15:49.057Z,4735
2023-04-15T12:16:58.224Z,5757
2023-04-15T12:18:07.398Z,7158
2023-04-15T12:19:16.569Z,5618
2023-04-15T12:20:25.736Z,4468
2023-04-15T12:21:34.923Z,5272
2023-04-15T12:22:44.091Z,4854
2023-04-15T12:23:53.260Z,5164
2023-04-15T12:25:02.421Z,6000
2023-04-15T12:26:11.596Z,6409
2023-04-15T12:27:20.767Z,6853
2023-04-15T12:28:29.946Z,6542
2023-04-15T12:29:39.117Z,6430
2023-04-15T12:30:47.320Z,6432
2023-04-15T12:31:56.490Z,5593
2023-04-15T12:33:05.655Z,5629
2023-04-15T12:34:14.821Z,5764
2023-04-15T12:35:24.046Z,5581
2023-04-15T12:36:33.216Z,5960
2023-04-15T12:38:51.529Z,6077
2023-04-15T12:39:59.716Z,7678
2023-04-15T12:41:07.901Z,7055
2023-04-15T12:43:26.252Z,6090
2023-04-15T12:44:34.441Z,6713
2023-04-15T12:45:42.642Z,5112
2023-04-15T12:46:51.859Z,4619
2023-04-15T12:48:00.979Z,5147
2023-04-15T12:49:10.152Z,4650
2023-04-15T12:50:19.327Z,5347
2023-04-15T12:51:28.502Z,4786
2023-04-15T12:52:37.723Z,4403
2023-04-15T12:53:46.857Z,5935
2023-04-15T12:54:56.035Z,4853
2023-04-15T12:56:05.190Z,5375
2023-04-15T12:57:14.375Z,5487
2023-04-15T12:58:23.531Z,5080
2023-04-15T13:00:41.894Z,5459
2023-04-15T13:01:50.065Z,5062
2023-04-15T13:02:59.230Z,4555
2023-04-15T13:04:08.435Z,2920
2023-04-15T13:05:17.584Z,3552
2023-04-15T13:06:26.759Z,2416
2023-04-15T13:08:45.103Z,2609
2023-04-15T13:09:54.280Z,2926
2023-04-15T13:11:02.460Z,2815
2023-04-15T13:12:10.658Z,2875
2023-04-15T13:13:19.829Z,2971
2023-04-15T13:14:29.002Z,2755
2023-04-15T13:15:37.208Z,2636
2023-04-15T13:16:46.365Z,2064
2023-04-15T13:17:54.565Z,2280
2023-04-15T13:19:03.723Z,3240
2023-04-15T13:21:22.076Z,2578
2023-04-15T13:22:31.236Z,2491
2023-04-15T13:23:40.428Z,2423
2023-04-15T13:24:49.588Z,1974
2023-04-15T13:25:58.773Z,2181
2023-04-15T13:27:07.941Z,2090
2023-04-15T13:28:17.106Z,1932
2023-04-15T13:29:26.277Z,1742
2023-04-15T13:30:35.454Z,2350
2023-04-15T13:31:44.630Z,2487
2023-04-15T13:32:52.818Z,2327
2023-04-15T13:34:01.991Z,2245
2023-04-15T13:35:11.165Z,2405
2023-04-15T13:36:20.337Z,2871
2023-04-15T13:37:29.497Z,3266
2023-04-15T13:38:38.673Z,3590
2023-04-15T13:39:47.847Z,3621
2023-04-15T13:40:56.055Z,3785
2023-04-15T13:42:04.226Z,2465
2023-04-15T13:43:13.406Z,2526
2023-04-15T13:44:22.579Z,2436
2023-04-15T13:45:31.767Z,3129
2023-04-15T13:46:40.920Z,2282
2023-04-15T13:47:50.100Z,2726
2023-04-15T13:48:59.270Z,2773
2023-04-15T13:50:08.442Z,1997
2023-04-15T13:51:17.619Z,2264
2023-04-15T13:52:26.777Z,1973
2023-04-15T13:53:35.973Z,2597
2023-04-15T13:54:45.134Z,2274
2023-04-15T13:55:54.299Z,3280
2023-04-15T13:57:02.488Z,2894
2023-04-15T13:58:10.687Z,2078
2023-04-15T13:59:18.870Z,1978
2023-04-15T14:00:28.064Z,2353
2023-04-15T14:01:37.219Z,2050
2023-04-15T14:02:46.388Z,1684
2023-04-15T14:03:55.577Z,2486
2023-04-15T14:05:04.740Z,2822
2023-04-15T14:06:13.922Z,2150
2023-04-15T14:07:23.080Z,2556
2023-04-15T14:08:32.247Z,2064
2023-04-15T14:09:41.432Z,1701
2023-04-15T14:10:50.586Z,1770
2023-04-15T14:11:59.772Z,1888
2023-04-15T14:13:08.935Z,2260
2023-04-15T14:14:17.126Z,1880
2023-04-15T14:15:26.294Z,1925
2023-04-15T14:16:35.484Z,1745
2023-04-15T14:17:44.643Z,1877
2023-04-15T14:18:53.829Z,1543
2023-04-15T14:21:12.162Z,1372
2023-04-15T14:22:21.342Z,1195
2023-04-15T14:23:29.526Z,1379
2023-04-15T14:24:37.715Z,1099
2023-04-15T14:25:46.889Z,1313
2023-04-15T14:26:55.092Z,1097
2023-04-15T14:28:03.286Z,1253
2023-04-15T14:29:12.449Z,1566
2023-04-15T14:30:21.607Z,1490
2023-04-15T14:31:30.783Z,1594
2023-04-15T14:32:39.964Z,1204
2023-04-15T14:33:49.152Z,1030
2023-04-15T14:34:58.319Z,899
2023-04-15T14:36:07.484Z,1076
2023-04-15T14:37:15.680Z,791
2023-04-15T14:38:24.844Z,1010
2023-04-15T14:39:34.090Z,1285
2023-04-15T14:40:43.358Z,1902
2023-04-15T14:41:52.499Z,1734
2023-04-15T14:43:01.526Z,1224
2023-04-15T14:44:10.837Z,1232
2023-04-15T14:45:20.079Z,915
2023-04-15T14:46:29.197Z,1146
2023-04-15T14:47:38.225Z,1070
2023-04-15T14:48:47.406Z,1246
2023-04-15T14:49:56.569Z,851
2023-04-15T14:51:04.762Z,1037
2023-04-15T14:52:12.966Z,800
2023-04-15T14:53:22.137Z,655
2023-04-15T14:54:31.300Z,721
2023-04-15T14:55:40.478Z,1115
2023-04-15T14:56:49.659Z,818
2023-04-15T14:57:58.817Z,825
2023-04-15T14:59:07.993Z,785
2023-04-15T15:00:17.171Z,691
2023-04-15T15:01:26.332Z,807
2023-04-15T15:02:35.507Z,716
2023-04-15T15:03:44.688Z,761
2023-04-15T15:04:53.847Z,919
2023-04-15T15:06:03.031Z,1133
2023-04-15T15:07:11.219Z,1111
2023-04-15T15:08:20.396Z,926
2023-04-15T15:09:29.556Z,1081
2023-04-15T15:10:38.733Z,1006
2023-04-15T15:11:47.909Z,933
2023-04-15T15:12:57.088Z,1142
2023-04-15T15:15:15.426Z,1200
2023-04-15T15:16:23.642Z,999
2023-04-15T15:17:32.780Z,1000
2023-04-15T15:18:40.985Z,890
2023-04-15T15:19:49.191Z,1174
2023-04-15T15:20:58.346Z,1119
2023-04-15T15:22:07.520Z,1047
2023-04-15T15:23:16.703Z,1086
2023-04-15T15:24:24.887Z,1121
2023-04-15T15:25:33.073Z,1088
2023-04-15T15:26:42.247Z,1075
2023-04-15T15:27:51.422Z,1026
2023-04-15T15:29:00.577Z,905
2023-04-15T15:30:09.759Z,905
2023-04-15T15:31:18.943Z,893
2023-04-15T15:32:28.111Z,945
2023-04-15T15:33:37.282Z,868
2023-04-15T15:35:55.629Z,792
2023-04-15T15:37:04.797Z,882
2023-04-15T15:38:13.969Z,870
2023-04-15T15:39:23.135Z,862
2023-04-15T15:40:32.317Z,896
2023-04-15T15:41:40.505Z,881
2023-04-15T15:42:49.679Z,851
2023-04-15T15:43:58.844Z,970
2023-04-15T15:45:08.022Z,975
2023-04-15T15:46:17.190Z,927
2023-04-15T15:47:26.376Z,923
2023-04-15T15:48:35.533Z,792
2023-04-15T15:49:43.738Z,939
2023-04-15T15:50:51.939Z,835
2023-04-15T15:52:00.105Z,725
2023-04-15T15:53:08.307Z,785
2023-04-15T15:54:17.470Z,632
2023-04-15T15:55:26.644Z,769
2023-04-15T15:56:35.821Z,662
2023-04-15T15:57:44.992Z,756
2023-04-15T15:58:54.160Z,811
2023-04-15T16:01:12.505Z,628
2023-04-15T16:02:21.692Z,612
2023-04-15T16:03:30.873Z,706
2023-04-15T16:04:40.028Z,557
2023-04-15T16:05:49.199Z,650
2023-04-15T16:06:58.374Z,713
2023-04-15T16:08:06.561Z,639
2023-04-15T16:09:15.751Z,795
2023-04-15T16:10:24.908Z,580
2023-04-15T16:11:34.078Z,635
2023-04-15T16:12:43.246Z,736
2023-04-15T16:13:52.442Z,710
2023-04-15T16:15:01.627Z,677
2023-04-15T16:16:10.779Z,689
2023-04-15T16:17:18.973Z,740
2023-04-15T16:18:27.151Z,603
2023-04-15T16:19:35.372Z,712